Terminal Aerodrome Forecast
Issued by NWS

Home | Current Version | Previous Version | Graphics & Text | Print | Product List | Glossary On
Versions: 1 2 3 4 5 6 7 8 9 10 11 12 13 14 15 16 17 18 19 20 21 22 23 24 25 26 27 28 29 30 31 32 33 34 35 36
000
FTUS43 KGRB 271500 AAB
TAFRHI
TAF AMD
KRHI 271533Z 2716/2812 VRB03KT P6SM BKN026 OVC035
     FM271700 29005KT P6SM SCT035
      TEMPO 2717/2718 SCT026 BKN035
     FM280000 VRB03KT P6SM SCT250
     FM280700 VRB03KT 4SM BR SCT200
      TEMPO 2809/2812 1SM BR=

USA.gov is the U.S. government's official web portal to all federal, state and local government web resources and services.